Time;durP1;ratioP1;P1;durP2;ratioP2;P2;SDS_P1;SDS_P2;PMS_P1;PMS_P2;Temp;Humidity;BMP_temperature;BMP_pressure;BME280_temperature;BME280_humidity;BME280_pressure;Samples;Min_cycle;Max_cycle;Signal;HPM_P1;HPM_P2
2023/06/01 00:02:19;;;;;;;3.90;2.33;;;;;;;16.00;39.79;95807.09;6252651;22;20806;-78
2023/06/01 00:04:44;;;;;;;4.00;2.88;;;;;;;15.97;40.07;95804.81;6255419;22;20182;-80
2023/06/01 00:07:10;;;;;;;5.65;2.67;;;;;;;15.95;39.97;95809.41;6307778;22;20180;-79
2023/06/01 00:09:36;;;;;;;5.53;2.83;;;;;;;15.98;39.97;95802.00;6255001;22;20534;-79
2023/06/01 00:12:02;;;;;;;4.18;2.63;;;;;;;15.91;40.47;95803.72;6280751;22;20176;-79
2023/06/01 00:14:27;;;;;;;4.97;2.72;;;;;;;15.98;39.91;95803.81;6255189;22;20173;-79
2023/06/01 00:16:53;;;;;;;5.45;3.30;;;;;;;15.90;41.45;95809.91;6254372;22;20204;-78
2023/06/01 00:19:18;;;;;;;4.03;2.72;;;;;;;15.65;41.90;95808.47;6254996;22;20167;-78
2023/06/01 00:21:43;;;;;;;4.47;2.97;;;;;;;15.74;41.14;95804.81;6254939;22;20232;-78
2023/06/01 00:24:09;;;;;;;4.65;2.70;;;;;;;15.75;41.29;95803.81;6255527;22;20156;-78
2023/06/01 00:26:34;;;;;;;6.57;2.67;;;;;;;15.71;41.48;95803.31;6254103;22;20179;-79
2023/06/01 00:29:00;;;;;;;4.85;2.50;;;;;;;15.81;41.08;95805.72;6280497;22;20160;-78
2023/06/01 00:31:25;;;;;;;7.57;2.70;;;;;;;15.85;41.19;95809.63;6280627;22;20163;-78
2023/06/01 00:33:52;;;;;;;4.18;2.28;;;;;;;15.81;41.23;95805.72;6255510;22;20163;-79
2023/06/01 00:36:17;;;;;;;3.20;2.22;;;;;;;15.76;41.70;95803.63;6279969;22;20227;-79
2023/06/01 00:38:42;;;;;;;6.72;2.65;;;;;;;15.78;41.86;95812.13;6280660;22;20148;-78
2023/06/01 00:41:08;;;;;;;4.40;2.50;;;;;;;15.74;42.15;95808.25;6280493;22;20178;-79
2023/06/01 00:43:33;;;;;;;5.45;2.63;;;;;;;15.70;42.12;95803.50;6280915;22;20168;-78
2023/06/01 00:45:58;;;;;;;3.65;2.38;;;;;;;15.73;41.86;95797.94;6254179;22;20183;-78
2023/06/01 00:48:24;;;;;;;3.90;2.30;;;;;;;15.78;41.85;95800.84;6253269;22;20210;-77
2023/06/01 00:50:49;;;;;;;4.70;2.78;;;;;;;15.72;42.48;95799.72;6254857;22;20505;-80
2023/06/01 00:53:17;;;;;;;5.35;2.50;;;;;;;15.71;42.61;95787.63;6255439;22;20172;-80
2023/06/01 00:55:43;;;;;;;6.43;2.80;;;;;;;15.64;42.91;95791.13;6254603;22;20162;-78
2023/06/01 00:58:08;;;;;;;7.07;2.42;;;;;;;15.55;43.30;95798.19;6306741;22;20227;-78
2023/06/01 01:00:33;;;;;;;4.93;2.75;;;;;;;15.53;42.90;95795.72;6280334;22;20148;-79
2023/06/01 01:03:07;;;;;;;5.55;2.90;;;;;;;15.52;42.71;95798.50;6280198;22;20175;-79
2023/06/01 01:05:33;;;;;;;6.28;2.80;;;;;;;15.51;42.95;95786.41;6282232;22;20132;-78
2023/06/01 01:08:09;;;;;;;5.70;2.80;;;;;;;15.53;43.13;95790.47;6254873;22;20189;-78
2023/06/01 01:10:55;;;;;;;6.55;2.55;;;;;;;15.51;42.89;95784.59;6254661;22;20144;-78
2023/06/01 01:13:29;;;;;;;4.45;2.28;;;;;;;15.54;42.87;95788.66;6280538;22;20682;-80
2023/06/01 01:16:08;;;;;;;6.63;2.50;;;;;;;15.49;42.93;95783.16;6254201;22;20266;-78
2023/06/01 01:18:37;;;;;;;4.85;2.63;;;;;;;15.50;42.99;95785.59;6280454;22;20159;-79
2023/06/01 01:21:21;;;;;;;7.35;2.55;;;;;;;15.47;43.03;95798.22;6279950;22;20164;-78
2023/06/01 01:24:07;;;;;;;8.75;2.60;;;;;;;15.35;43.21;95789.91;6258566;22;20172;-80
2023/06/01 01:26:46;;;;;;;4.20;2.42;;;;;;;15.26;43.85;95785.72;6253946;22;20171;-78
2023/06/01 01:29:12;;;;;;;3.88;2.42;;;;;;;15.14;44.26;95790.50;6279666;22;20190;-79
2023/06/01 01:31:38;;;;;;;3.22;2.35;;;;;;;15.07;44.99;95788.75;6254062;22;20617;-79
2023/06/01 01:34:04;;;;;;;7.95;2.40;;;;;;;14.98;44.85;95790.56;6254139;22;20241;-80
2023/06/01 01:36:30;;;;;;;3.90;2.50;;;;;;;14.91;45.83;95787.00;6254147;22;20148;-78
2023/06/01 01:38:55;;;;;;;4.68;2.70;;;;;;;14.86;45.75;95786.69;6279485;22;20152;-78
2023/06/01 01:41:21;;;;;;;2.85;2.25;;;;;;;14.79;45.91;95781.31;6254163;22;20210;-79
2023/06/01 01:43:47;;;;;;;4.10;2.53;;;;;;;14.69;46.40;95785.91;6254262;22;20494;-77
2023/06/01 01:46:25;;;;;;;4.78;2.85;;;;;;;14.61;47.01;95784.13;6278913;22;20239;-78
2023/06/01 01:49:00;;;;;;;4.43;2.85;;;;;;;14.54;47.19;95780.56;6279116;22;20131;-78
2023/06/01 01:51:46;;;;;;;6.80;2.67;;;;;;;14.49;47.31;95782.88;6307014;22;20155;-77
2023/06/01 01:54:12;;;;;;;5.15;3.20;;;;;;;14.41;47.26;95775.81;6306854;22;20666;-78
2023/06/01 01:56:38;;;;;;;5.75;2.70;;;;;;;14.31;48.00;95775.19;6278894;22;20223;-77
2023/06/01 01:59:04;;;;;;;3.55;2.25;;;;;;;14.31;48.12;95776.94;6279472;22;20548;-78
2023/06/01 02:01:30;;;;;;;4.47;2.90;;;;;;;14.28;48.36;95778.09;6280019;22;20209;-78
2023/06/01 02:04:07;;;;;;;4.95;2.60;;;;;;;14.18;48.88;95778.28;6279665;22;20209;-79
2023/06/01 02:06:33;;;;;;;7.03;3.17;;;;;;;14.21;48.27;95777.13;6253212;22;20608;-78
2023/06/01 02:08:58;;;;;;;5.72;3.22;;;;;;;14.19;48.38;95779.09;6279296;22;20214;-78
2023/06/01 02:11:23;;;;;;;5.73;2.97;;;;;;;14.12;48.88;95772.88;6253814;22;20162;-78
2023/06/01 02:13:49;;;;;;;5.45;2.60;;;;;;;14.08;48.92;95767.19;6279136;22;20151;-78
2023/06/01 02:16:17;;;;;;;4.43;2.67;;;;;;;14.04;49.66;95760.63;6278822;22;20144;-78
2023/06/01 02:18:45;;;;;;;3.87;2.50;;;;;;;13.88;50.62;95765.88;6279104;22;20182;-78
2023/06/01 02:21:14;;;;;;;3.83;2.63;;;;;;;13.91;50.14;95762.13;6253869;22;20200;-77
2023/06/01 02:23:39;;;;;;;4.77;2.20;;;;;;;13.86;50.06;95758.19;6279196;22;20172;-80
2023/06/01 02:26:06;;;;;;;4.77;3.10;;;;;;;13.86;50.47;95762.59;6278942;22;20572;-78
2023/06/01 02:28:31;;;;;;;5.00;2.73;;;;;;;13.82;50.58;95756.09;6253804;22;20247;-78
2023/06/01 02:30:57;;;;;;;6.93;2.80;;;;;;;13.77;50.69;95753.94;6253843;22;20156;-78
2023/06/01 02:33:24;;;;;;;4.43;2.60;;;;;;;13.74;50.72;95753.47;6253433;22;20176;-77
2023/06/01 02:35:50;;;;;;;6.30;2.60;;;;;;;13.69;50.92;95756.53;6279799;22;20582;-77
2023/06/01 02:38:15;;;;;;;3.78;2.58;;;;;;;13.67;50.91;95753.28;6278943;22;20183;-79
2023/06/01 02:40:41;;;;;;;3.93;2.77;;;;;;;13.60;50.98;95754.91;6253184;22;20233;-77
2023/06/01 02:43:06;;;;;;;5.60;2.80;;;;;;;13.62;51.22;95759.97;6305896;22;20190;-78
2023/06/01 02:45:31;;;;;;;7.60;2.73;;;;;;;13.58;51.34;95754.25;6279265;22;20148;-78
2023/06/01 02:47:56;;;;;;;5.13;3.00;;;;;;;13.57;51.05;95747.41;6277062;22;20179;-79
2023/06/01 02:50:22;;;;;;;5.27;2.70;;;;;;;13.56;51.05;95753.59;6306375;22;20143;-79
2023/06/01 02:52:48;;;;;;;6.60;3.03;;;;;;;13.54;51.59;95745.94;6279280;22;20221;-79
2023/06/01 02:55:13;;;;;;;6.53;2.80;;;;;;;13.50;51.31;95749.03;6253611;22;20166;-79
2023/06/01 02:57:38;;;;;;;7.37;3.00;;;;;;;13.50;51.04;95752.44;6252276;22;20174;-77
2023/06/01 03:00:06;;;;;;;6.80;2.90;;;;;;;13.49;51.18;95744.78;6278933;22;20155;-78
2023/06/01 03:02:40;;;;;;;5.07;2.67;;;;;;;13.47;51.00;95750.16;6255717;22;20555;-79
2023/06/01 03:05:06;;;;;;;5.03;3.07;;;;;;;13.46;50.83;95755.53;6253426;22;20156;-79
2023/06/01 03:07:32;;;;;;;3.87;2.70;;;;;;;13.43;51.17;95756.69;6278487;22;20625;-78
2023/06/01 03:09:57;;;;;;;7.47;3.20;;;;;;;13.38;51.20;95748.53;6253237;22;20155;-78
2023/06/01 03:12:22;;;;;;;4.10;2.67;;;;;;;13.36;51.42;95757.47;6260609;22;20175;-79
2023/06/01 03:14:47;;;;;;;6.43;3.27;;;;;;;13.30;52.63;95754.53;6330656;22;20190;-78
2023/06/01 03:17:13;;;;;;;6.27;3.23;;;;;;;13.29;52.40;95757.31;6304290;22;20168;-79
2023/06/01 03:19:38;;;;;;;4.70;2.60;;;;;;;13.26;52.35;95755.84;6331568;22;20196;-78
2023/06/01 03:22:03;;;;;;;5.30;3.33;;;;;;;13.26;52.77;95750.63;6304983;22;20176;-78
2023/06/01 03:24:29;;;;;;;4.13;2.67;;;;;;;13.25;52.61;95754.19;6305005;22;20166;-78
2023/06/01 03:26:55;;;;;;;7.53;2.93;;;;;;;13.24;52.24;95754.34;6277921;22;20180;-78
2023/06/01 03:29:20;;;;;;;4.13;3.10;;;;;;;13.24;51.98;95749.13;6279796;22;20151;-78
2023/06/01 03:31:46;;;;;;;5.07;3.17;;;;;;;13.33;51.93;95745.56;6278350;22;20175;-79
2023/06/01 03:34:11;;;;;;;5.20;3.07;;;;;;;13.38;51.49;95737.28;6275123;22;20178;-79
2023/06/01 03:36:37;;;;;;;4.97;2.60;;;;;;;13.47;51.09;95750.16;6300730;22;20147;-79
2023/06/01 03:39:07;;;;;;;3.90;2.80;;;;;;;13.55;51.09;95754.59;6277574;22;20155;-77
2023/06/01 03:41:33;;;;;;;7.47;3.10;;;;;;;13.60;50.92;95752.28;6278277;22;20124;-78
2023/06/01 03:43:58;;;;;;;5.20;2.80;;;;;;;13.65;50.85;95755.25;6276854;22;20162;-77
2023/06/01 03:46:24;;;;;;;4.80;2.93;;;;;;;13.75;50.70;95761.13;6267895;22;20228;-79
2023/06/01 03:48:51;;;;;;;5.00;2.60;;;;;;;13.90;50.20;95756.09;6284430;22;20170;-79
2023/06/01 03:51:16;;;;;;;6.23;2.70;;;;;;;13.92;50.07;95767.19;6257998;22;20160;-78
2023/06/01 03:53:41;;;;;;;5.40;3.00;;;;;;;14.65;48.26;95767.13;6282756;22;20473;-79
2023/06/01 03:56:07;;;;;;;5.53;3.00;;;;;;;15.75;45.86;95756.69;6282337;22;20152;-79
2023/06/01 03:58:32;;;;;;;4.32;3.08;;;;;;;16.66;42.81;95756.53;6282851;22;20148;-79
2023/06/01 04:00:57;;;;;;;4.80;2.80;;;;;;;17.58;41.83;95766.63;6257654;22;20160;-80
2023/06/01 04:03:24;;;;;;;6.45;2.90;;;;;;;18.29;40.33;95780.69;6257153;22;20175;-80
2023/06/01 04:05:58;;;;;;;6.72;2.90;;;;;;;19.15;39.71;95775.19;6256949;22;20175;-80
2023/06/01 04:08:24;;;;;;;3.75;2.92;;;;;;;19.38;38.09;95775.69;6284816;22;20452;-80
2023/06/01 04:10:50;;;;;;;4.90;2.85;;;;;;;20.08;36.98;95771.88;6256920;22;20167;-80
2023/06/01 04:13:15;;;;;;;5.22;2.60;;;;;;;20.22;36.94;95777.13;6257355;22;20168;-80
2023/06/01 04:15:41;;;;;;;5.40;2.70;;;;;;;20.32;36.61;95769.66;6256625;22;20156;-79
2023/06/01 04:18:06;;;;;;;4.30;2.70;;;;;;;20.74;35.11;95771.06;6256050;22;20159;-80
2023/06/01 04:20:32;;;;;;;6.07;2.58;;;;;;;20.01;37.28;95772.88;6282654;22;20454;-80
2023/06/01 04:22:57;;;;;;;4.28;2.92;;;;;;;19.95;37.40;95777.09;6256255;22;20217;-80
2023/06/01 04:25:23;;;;;;;4.93;2.80;;;;;;;20.39;36.64;95783.63;6256821;22;20159;-79
2023/06/01 04:27:51;;;;;;;3.60;2.50;;;;;;;21.07;35.42;95786.84;6309615;22;20172;-80
2023/06/01 04:30:16;;;;;;;5.13;2.63;;;;;;;21.81;33.72;95782.09;6283370;22;20541;-80
2023/06/01 04:32:43;;;;;;;3.60;2.70;;;;;;;22.24;32.61;95785.72;6309955;22;20174;-80
2023/06/01 04:35:09;;;;;;;7.78;2.50;;;;;;;23.00;32.08;95797.16;6283465;22;20159;-80
2023/06/01 04:37:41;;;;;;;6.20;3.17;;;;;;;23.11;32.58;95799.88;6307356;22;20163;-80
2023/06/01 04:40:09;;;;;;;4.50;3.20;;;;;;;23.69;31.28;95801.31;6257342;22;20140;-80
2023/06/01 04:42:41;;;;;;;4.50;2.80;;;;;;;24.06;31.63;95790.59;6307563;22;20184;-80
2023/06/01 04:45:07;;;;;;;3.47;2.78;;;;;;;24.53;30.67;95787.03;6282247;22;20167;-80
2023/06/01 04:47:37;;;;;;;6.38;3.10;;;;;;;25.33;30.49;95790.97;6280155;22;20179;-80
2023/06/01 04:50:10;;;;;;;4.43;3.15;;;;;;;25.84;29.33;95792.84;6281759;22;20156;-77
2023/06/01 04:52:36;;;;;;;3.85;2.58;;;;;;;26.30;28.91;95796.31;6255379;22;20171;-77
2023/06/01 04:55:04;;;;;;;4.00;3.22;;;;;;;26.67;27.86;95794.03;6280544;22;20156;-76
2023/06/01 04:57:30;;;;;;;8.07;3.05;;;;;;;27.63;26.22;95791.94;6280745;22;20144;-77
2023/06/01 04:59:56;;;;;;;5.47;3.03;;;;;;;27.70;27.08;95805.13;6255459;22;20202;-77
2023/06/01 05:02:22;;;;;;;5.07;2.95;;;;;;;27.89;26.20;95803.72;6255649;22;20218;-80
2023/06/01 05:04:48;;;;;;;5.03;2.85;;;;;;;27.78;26.45;95801.22;6281163;22;20148;-77
2023/06/01 05:07:13;;;;;;;5.28;2.95;;;;;;;28.03;27.25;95803.34;6254153;22;20175;-78
2023/06/01 05:09:38;;;;;;;5.20;2.90;;;;;;;27.50;24.76;95805.66;6255174;22;20160;-78
2023/06/01 05:12:04;;;;;;;5.97;2.72;;;;;;;28.20;25.37;95801.41;6255208;22;20187;-78
2023/06/01 05:14:29;;;;;;;5.57;2.67;;;;;;;28.08;24.84;95800.72;6308421;22;20597;-78
2023/06/01 05:16:55;;;;;;;5.45;2.90;;;;;;;30.21;21.60;95803.19;6253972;22;20152;-78
2023/06/01 05:19:21;;;;;;;7.00;2.50;;;;;;;28.46;24.42;95799.81;6281591;22;20163;-77
2023/06/01 05:21:47;;;;;;;7.45;3.00;;;;;;;28.45;24.90;95804.34;6281548;22;20637;-77
2023/06/01 05:24:12;;;;;;;3.92;2.22;;;;;;;28.14;24.28;95808.53;6255677;22;20648;-79
2023/06/01 05:26:37;;;;;;;5.18;2.47;;;;;;;28.00;24.71;95809.19;6254979;22;20840;-77
2023/06/01 05:29:03;;;;;;;3.45;2.60;;;;;;;28.29;24.03;95799.09;6256212;22;20159;-79
2023/06/01 05:31:29;;;;;;;3.45;2.65;;;;;;;27.94;25.29;95811.81;6281808;22;20486;-78
2023/06/01 05:33:55;;;;;;;5.60;2.58;;;;;;;28.05;24.75;95818.06;6256229;22;20160;-78
2023/06/01 05:36:20;;;;;;;3.97;2.65;;;;;;;28.44;23.82;95807.22;6308430;22;20148;-78
2023/06/01 05:38:46;;;;;;;7.03;2.58;;;;;;;28.63;23.12;95811.16;6255755;22;20156;-78
2023/06/01 05:41:11;;;;;;;6.07;2.92;;;;;;;29.81;21.67;95807.34;6308508;22;20151;-78
2023/06/01 05:43:37;;;;;;;4.50;3.05;;;;;;;28.71;23.58;95804.53;6281532;22;20486;-77
2023/06/01 05:46:02;;;;;;;5.45;2.90;;;;;;;28.65;23.96;95805.56;6280573;22;20174;-78
2023/06/01 05:48:28;;;;;;;3.53;2.90;;;;;;;31.43;20.10;95811.25;6279759;22;20254;-78
2023/06/01 05:50:53;;;;;;;7.90;2.67;;;;;;;29.59;21.51;95805.66;6281045;22;20495;-78
2023/06/01 05:53:18;;;;;;;5.72;3.22;;;;;;;31.79;18.72;95812.75;6255506;22;20626;-79
2023/06/01 05:55:44;;;;;;;3.63;2.83;;;;;;;31.10;19.77;95809.94;6281033;22;20178;-78
2023/06/01 05:58:10;;;;;;;4.18;2.53;;;;;;;29.70;20.98;95811.06;6254682;22;20562;-78
2023/06/01 06:00:35;;;;;;;4.70;2.80;;;;;;;28.85;22.23;95810.25;6281180;22;20205;-78
2023/06/01 06:03:00;;;;;;;6.78;3.13;;;;;;;30.83;19.42;95802.19;6255524;22;20275;-79
2023/06/01 06:05:26;;;;;;;4.35;3.08;;;;;;;31.20;19.85;95813.44;6280437;22;20211;-78
2023/06/01 06:07:51;;;;;;;3.22;2.78;;;;;;;31.80;19.30;95814.34;6279355;22;20180;-79
2023/06/01 06:10:16;;;;;;;7.82;3.13;;;;;;;31.54;19.15;95821.69;6255198;22;20235;-78
2023/06/01 06:12:42;;;;;;;5.57;2.78;;;;;;;31.02;19.71;95812.13;6254422;22;20191;-78
2023/06/01 06:15:07;;;;;;;5.90;3.17;;;;;;;30.91;19.78;95815.06;6307876;22;20531;-79
2023/06/01 06:17:33;;;;;;;5.35;2.88;;;;;;;29.70;21.17;95813.75;6279449;22;20148;-78
2023/06/01 06:19:58;;;;;;;6.78;2.75;;;;;;;31.59;19.36;95812.81;6254905;22;20221;-78
2023/06/01 06:22:23;;;;;;;5.68;3.10;;;;;;;29.56;20.66;95811.53;6254729;22;20225;-78
2023/06/01 06:24:49;;;;;;;6.85;3.08;;;;;;;30.21;20.25;95813.91;6280744;22;20152;-79
2023/06/01 06:27:14;;;;;;;6.03;3.28;;;;;;;29.23;22.50;95811.88;6254017;22;20184;-78
2023/06/01 06:29:39;;;;;;;4.97;2.92;;;;;;;30.33;21.62;95817.16;6280828;22;20152;-77
2023/06/01 06:32:05;;;;;;;5.22;2.95;;;;;;;30.62;20.82;95809.41;6255281;22;20621;-78
2023/06/01 06:34:35;;;;;;;3.58;2.83;;;;;;;29.88;21.87;95810.59;6280499;22;20613;-78
2023/06/01 06:37:11;;;;;;;6.72;3.08;;;;;;;29.79;21.87;95809.50;6279807;22;20167;-76
2023/06/01 06:39:37;;;;;;;4.85;2.92;;;;;;;29.42;22.52;95810.38;6280700;22;20612;-78
2023/06/01 06:42:03;;;;;;;5.68;3.55;;;;;;;30.45;22.20;95815.84;6254901;22;20258;-77
2023/06/01 06:44:28;;;;;;;5.18;2.70;;;;;;;30.83;21.45;95820.97;6254583;22;20247;-78
2023/06/01 06:46:54;;;;;;;3.88;3.15;;;;;;;29.18;22.60;95814.53;6253699;22;20183;-78
2023/06/01 06:49:19;;;;;;;5.25;3.38;;;;;;;30.22;20.67;95821.72;6278142;22;20156;-79
2023/06/01 06:51:45;;;;;;;4.55;3.58;;;;;;;29.98;21.32;95824.03;6280302;22;20183;-78
2023/06/01 06:54:11;;;;;;;5.82;3.13;;;;;;;30.61;20.89;95822.00;6254184;22;20911;-77
2023/06/01 06:56:36;;;;;;;3.72;2.88;;;;;;;31.54;20.63;95823.53;6279703;22;20147;-78
2023/06/01 06:59:01;;;;;;;5.28;3.38;;;;;;;31.23;20.98;95817.47;6254158;22;20167;-77
2023/06/01 07:01:27;;;;;;;4.38;2.60;;;;;;;30.99;20.92;95822.56;6254588;22;20156;-78
2023/06/01 07:03:52;;;;;;;5.72;3.10;;;;;;;30.13;21.73;95824.09;6280160;22;20152;-78
2023/06/01 07:06:18;;;;;;;7.38;3.10;;;;;;;30.50;21.68;95823.09;6253413;22;20322;-79
2023/06/01 07:08:43;;;;;;;4.05;3.08;;;;;;;29.96;22.06;95828.03;6280119;22;20156;-78
2023/06/01 07:11:09;;;;;;;8.45;3.50;;;;;;;29.95;22.01;95824.56;6280069;22;20539;-78
2023/06/01 07:13:35;;;;;;;5.10;3.42;;;;;;;30.69;22.09;95828.75;6254258;22;20182;-78
2023/06/01 07:16:01;;;;;;;9.30;3.60;;;;;;;30.37;21.98;95828.94;6279772;22;20158;-78
2023/06/01 07:18:26;;;;;;;6.05;3.63;;;;;;;28.70;23.89;95832.31;6254521;22;20183;-79
2023/06/01 07:20:51;;;;;;;5.97;3.60;;;;;;;28.33;24.32;95833.06;6279372;22;20186;-79
2023/06/01 07:23:17;;;;;;;5.20;3.28;;;;;;;28.68;24.39;95826.41;6279857;22;20485;-78
2023/06/01 07:25:42;;;;;;;4.82;3.35;;;;;;;28.16;24.79;95837.66;6254680;22;20156;-78
2023/06/01 07:28:08;;;;;;;4.70;3.47;;;;;;;28.15;25.18;95834.19;6253626;22;20183;-79
2023/06/01 07:30:34;;;;;;;6.13;3.33;;;;;;;29.27;24.09;95827.16;6279808;22;20148;-78
2023/06/01 07:32:59;;;;;;;6.60;3.72;;;;;;;29.36;24.05;95824.78;6279508;22;20175;-78
2023/06/01 07:35:25;;;;;;;6.97;3.38;;;;;;;28.60;25.23;95818.88;6254278;22;20233;-78
2023/06/01 07:37:50;;;;;;;5.85;3.45;;;;;;;29.21;24.80;95819.34;6278946;22;20200;-79
2023/06/01 07:40:16;;;;;;;6.65;3.30;;;;;;;29.29;24.60;95821.53;6279656;22;20201;-79
2023/06/01 07:42:41;;;;;;;4.13;3.25;;;;;;;28.75;24.89;95827.03;6279692;22;20215;-79
2023/06/01 07:45:08;;;;;;;7.28;3.50;;;;;;;28.26;25.21;95826.25;6279701;22;20185;-79
2023/06/01 07:47:34;;;;;;;4.85;3.40;;;;;;;28.14;25.92;95827.22;6252483;22;20183;-77
2023/06/01 07:49:59;;;;;;;4.97;3.45;;;;;;;27.93;26.30;95826.22;6253724;22;20499;-79
2023/06/01 07:52:25;;;;;;;7.20;3.70;;;;;;;28.55;26.43;95819.66;6279933;22;20167;-79
2023/06/01 07:54:51;;;;;;;5.45;3.80;;;;;;;28.33;25.46;95835.72;6279630;22;20198;-79
2023/06/01 07:57:16;;;;;;;6.30;3.30;;;;;;;27.00;28.34;95827.03;6253438;22;20152;-79
2023/06/01 07:59:42;;;;;;;4.18;3.35;;;;;;;26.96;27.31;95825.94;6253848;22;20601;-78
2023/06/01 08:02:07;;;;;;;6.57;3.50;;;;;;;26.44;28.45;95824.31;6254448;22;20180;-78
2023/06/01 08:04:35;;;;;;;4.03;3.45;;;;;;;26.38;28.17;95817.25;6279691;22;20159;-78
2023/06/01 08:07:03;;;;;;;5.22;3.15;;;;;;;25.76;29.60;95825.13;6253608;22;20553;-79
2023/06/01 08:09:28;;;;;;;5.65;3.67;;;;;;;26.59;28.49;95826.41;6254336;22;20182;-78
2023/06/01 08:11:53;;;;;;;8.82;3.83;;;;;;;25.06;31.39;95825.22;6279497;22;20649;-79
2023/06/01 08:14:19;;;;;;;6.07;3.72;;;;;;;25.28;31.10;95822.78;6307157;22;20160;-78
2023/06/01 08:16:45;;;;;;;7.93;3.08;;;;;;;25.78;30.20;95816.91;6278523;22;20205;-78
2023/06/01 08:19:11;;;;;;;6.90;3.90;;;;;;;25.47;31.80;95820.78;6253779;22;20512;-77
2023/06/01 08:21:36;;;;;;;6.65;3.38;;;;;;;25.27;31.62;95819.31;6279954;22;20159;-79
2023/06/01 08:24:02;;;;;;;8.90;3.90;;;;;;;25.08;32.31;95823.13;6307468;22;20673;-78
2023/06/01 08:26:27;;;;;;;5.43;3.28;;;;;;;26.07;30.67;95823.88;6280046;22;20271;-78
2023/06/01 08:28:53;;;;;;;7.15;3.78;;;;;;;25.17;31.66;95821.72;6281147;22;20156;-79
2023/06/01 08:31:23;;;;;;;6.85;3.13;;;;;;;24.52;32.87;95817.28;6281462;22;20152;-78
2023/06/01 08:33:49;;;;;;;8.27;4.18;;;;;;;24.52;33.48;95816.47;6255737;22;20218;-79
2023/06/01 08:36:15;;;;;;;5.22;3.28;;;;;;;25.00;32.48;95820.78;6254662;22;20152;-78
2023/06/01 08:38:41;;;;;;;7.72;3.97;;;;;;;24.76;32.02;95809.38;6254941;22;20183;-79
2023/06/01 08:41:37;;;;;;;6.95;3.72;;;;;;;25.39;31.78;95804.16;6255389;22;20252;-77
2023/06/01 08:44:03;;;;;;;8.80;4.63;;;;;;;25.53;31.14;95811.84;6280381;22;20171;-77
2023/06/01 08:46:30;;;;;;;5.30;4.05;;;;;;;25.23;31.61;95804.06;6280056;22;20191;-77
2023/06/01 08:48:57;;;;;;;5.15;3.92;;;;;;;23.82;34.54;95805.63;6306556;22;20168;-77
2023/06/01 08:51:23;;;;;;;7.00;4.22;;;;;;;24.16;34.04;95798.81;6281057;22;20201;-78
2023/06/01 08:53:50;;;;;;;5.90;4.05;;;;;;;23.52;35.19;95805.56;6280589;22;20167;-78
2023/06/01 08:56:15;;;;;;;7.45;4.78;;;;;;;23.68;35.10;95807.66;6254085;22;20156;-78
2023/06/01 08:58:41;;;;;;;6.03;4.28;;;;;;;23.60;35.04;95808.75;6280349;22;20742;-78
2023/06/01 09:01:07;;;;;;;9.25;4.30;;;;;;;23.71;34.74;95808.00;6255026;22;20156;-77
2023/06/01 09:03:32;;;;;;;7.50;4.47;;;;;;;23.52;34.44;95801.06;6254692;22;20266;-77
2023/06/01 09:05:58;;;;;;;6.95;4.30;;;;;;;23.68;34.74;95811.09;6279392;22;20228;-76
2023/06/01 09:08:24;;;;;;;8.98;5.00;;;;;;;24.25;33.38;95800.94;6279898;22;20156;-78
2023/06/01 09:10:49;;;;;;;6.65;4.40;;;;;;;24.71;33.10;95803.91;6280437;22;20159;-78
2023/06/01 09:13:30;;;;;;;8.55;4.18;;;;;;;24.35;33.43;95803.06;6280997;22;20250;-78
2023/06/01 09:15:56;;;;;;;7.25;4.35;;;;;;;23.94;33.93;95811.75;6279816;22;20570;-77
2023/06/01 09:18:21;;;;;;;10.48;5.13;;;;;;;23.82;34.54;95814.38;6254808;22;20206;-78
2023/06/01 09:20:46;;;;;;;6.90;4.70;;;;;;;23.59;34.32;95817.75;6254657;22;20164;-77
2023/06/01 09:23:23;;;;;;;6.43;4.57;;;;;;;23.16;35.12;95809.81;6279919;22;20168;-78
2023/06/01 09:26:03;;;;;;;6.85;4.88;;;;;;;23.72;34.89;95814.09;6279844;22;20148;-77
2023/06/01 09:28:28;;;;;;;6.78;4.32;;;;;;;24.58;32.86;95802.31;6254888;22;20246;-79
2023/06/01 09:30:55;;;;;;;6.78;5.15;;;;;;;24.57;32.95;95804.16;6255411;22;20195;-80
2023/06/01 09:33:20;;;;;;;6.72;4.30;;;;;;;25.16;32.60;95798.06;6254715;22;20552;-78
2023/06/01 09:35:50;;;;;;;11.38;4.60;;;;;;;25.14;32.66;95804.41;6254214;22;20159;-77
2023/06/01 09:38:23;;;;;;;5.97;4.47;;;;;;;24.14;33.55;95807.03;6280269;22;20609;-77
2023/06/01 09:41:00;;;;;;;6.82;4.53;;;;;;;23.82;34.02;95809.06;6280268;22;20159;-76
2023/06/01 09:43:26;;;;;;;5.78;4.70;;;;;;;24.12;33.77;95801.13;6305152;22;20272;-78
2023/06/01 09:46:08;;;;;;;6.93;5.00;;;;;;;25.19;32.72;95797.59;6253539;22;20163;-77
2023/06/01 09:48:34;;;;;;;7.15;5.28;;;;;;;24.02;33.63;95799.00;6277995;22;20163;-78
2023/06/01 09:50:59;;;;;;;8.75;4.72;;;;;;;24.48;32.84;95792.25;6280303;22;20148;-78
2023/06/01 09:53:25;;;;;;;6.63;5.20;;;;;;;24.81;33.19;95794.34;6253698;22;20214;-78
2023/06/01 09:55:58;;;;;;;8.07;4.97;;;;;;;25.38;33.11;95793.75;6306595;22;20218;-77
2023/06/01 09:58:23;;;;;;;7.90;4.53;;;;;;;25.02;32.83;95798.31;6253661;22;20644;-78
2023/06/01 10:00:50;;;;;;;6.93;5.43;;;;;;;25.03;31.66;95786.63;6254445;22;20152;-78
2023/06/01 10:03:16;;;;;;;6.30;5.25;;;;;;;24.91;30.98;95777.81;6305445;22;20226;-78
2023/06/01 10:05:45;;;;;;;7.43;4.85;;;;;;;25.06;32.96;95788.00;6279848;22;20156;-78
2023/06/01 10:08:12;;;;;;;6.57;4.88;;;;;;;24.92;30.94;95784.78;6306670;22;20621;-78
2023/06/01 10:10:38;;;;;;;9.35;5.25;;;;;;;25.40;29.79;95781.03;6306894;22;20148;-78
2023/06/01 10:13:03;;;;;;;5.50;4.72;;;;;;;25.24;31.52;95787.06;6253889;22;20171;-77
2023/06/01 10:15:29;;;;;;;9.10;4.80;;;;;;;25.20;30.94;95783.28;6254227;22;20249;-79
2023/06/01 10:17:55;;;;;;;9.02;4.85;;;;;;;24.58;31.50;95781.06;6253393;22;20200;-78
2023/06/01 10:20:20;;;;;;;6.35;5.07;;;;;;;24.83;31.58;95779.00;6248958;22;20247;-77
2023/06/01 10:22:46;;;;;;;6.45;5.03;;;;;;;24.72;31.07;95779.78;6248428;22;20184;-79
2023/06/01 10:25:14;;;;;;;9.65;4.55;;;;;;;25.18;30.96;95785.34;6223026;22;20163;-78
2023/06/01 10:27:42;;;;;;;7.72;5.22;;;;;;;24.97;31.31;95776.09;6247941;22;20172;-78
2023/06/01 10:30:09;;;;;;;6.10;4.82;;;;;;;24.55;31.73;95774.34;6274556;22;20594;-78
2023/06/01 10:32:37;;;;;;;6.88;5.03;;;;;;;24.85;31.02;95776.09;6222877;22;20183;-78
2023/06/01 10:35:03;;;;;;;9.30;5.15;;;;;;;24.72;31.67;95768.34;6248612;22;20214;-78
2023/06/01 10:37:29;;;;;;;10.70;5.78;;;;;;;24.82;32.35;95764.06;6222721;22;20598;-78
2023/06/01 10:40:14;;;;;;;11.07;4.93;;;;;;;25.24;31.58;95765.81;6274538;22;20148;-77
2023/06/01 10:42:40;;;;;;;6.38;4.95;;;;;;;24.96;30.90;95774.47;6248487;22;20638;-78
2023/06/01 10:45:06;;;;;;;8.63;4.85;;;;;;;25.27;30.31;95765.38;6276287;22;20156;-78
2023/06/01 10:47:34;;;;;;;7.57;4.82;;;;;;;25.26;29.69;95756.56;6222204;22;20184;-78
2023/06/01 10:50:00;;;;;;;7.28;4.82;;;;;;;25.73;28.44;95755.66;6248794;22;20156;-79
2023/06/01 10:52:27;;;;;;;8.32;4.60;;;;;;;25.55;29.11;95760.09;6249246;22;20176;-78
2023/06/01 10:54:53;;;;;;;6.72;4.85;;;;;;;25.21;30.04;95760.97;6223553;22;20163;-78
2023/06/01 10:57:20;;;;;;;6.70;5.10;;;;;;;25.16;30.35;95755.53;6275816;22;20144;-77
2023/06/01 11:00:15;;;;;;;5.07;4.32;;;;;;;25.34;29.70;95758.03;6248219;22;20635;-78
2023/06/01 11:02:49;;;;;;;8.98;5.00;;;;;;;25.48;28.65;95756.75;6253236;22;20187;-77
2023/06/01 11:05:50;;;;;;;10.00;5.28;;;;;;;25.98;29.02;95750.81;6249198;22;20598;-77
2023/06/01 11:08:21;;;;;;;6.20;4.45;;;;;;;25.39;29.07;95752.84;6253016;22;20217;-78
2023/06/01 11:10:52;;;;;;;7.30;4.75;;;;;;;25.76;28.89;95753.31;6281153;22;20152;-78
2023/06/01 11:13:19;;;;;;;7.90;4.53;;;;;;;25.72;28.57;95752.19;6277232;22;20222;-78
2023/06/01 11:16:03;;;;;;;12.68;5.05;;;;;;;24.88;28.82;95757.03;6250024;22;20161;-77
2023/06/01 11:18:41;;;;;;;7.47;5.13;;;;;;;25.46;28.20;95748.19;6277767;22;20148;-79
2023/06/01 11:21:08;;;;;;;4.90;4.40;;;;;;;26.05;28.59;95747.97;6249929;22;20194;-78
2023/06/01 11:23:34;;;;;;;7.43;4.68;;;;;;;25.76;27.87;95749.84;6250966;22;20199;-78
2023/06/01 11:26:01;;;;;;;7.30;4.80;;;;;;;25.96;26.80;95748.34;6249335;22;20156;-78
2023/06/01 11:28:26;;;;;;;11.88;5.70;;;;;;;25.57;27.77;95755.31;6224319;22;20169;-78
2023/06/01 11:30:52;;;;;;;6.05;4.70;;;;;;;25.96;28.58;95743.03;6224754;22;20163;-78
2023/06/01 11:33:19;;;;;;;6.53;4.40;;;;;;;26.23;27.59;95748.56;6223254;22;20230;-79
2023/06/01 11:35:44;;;;;;;8.90;4.65;;;;;;;25.75;28.43;95743.72;6223583;22;20183;-76